sensor_id;sensor_type;location;lat;lon;timestamp;P1;durP1;ratioP1;P2;durP2;ratioP2
13090;SDS011;6611;52.604;13.438;2024-01-30T00:04:29;13.40;;;7.80;;
13090;SDS011;6611;52.604;13.438;2024-01-30T00:09:30;9.93;;;6.67;;
13090;SDS011;6611;52.604;13.438;2024-01-30T00:14:32;12.73;;;7.43;;
13090;SDS011;6611;52.604;13.438;2024-01-30T00:19:35;14.17;;;7.30;;
13090;SDS011;6611;52.604;13.438;2024-01-30T00:24:37;12.50;;;7.40;;
13090;SDS011;6611;52.604;13.438;2024-01-30T00:29:38;11.67;;;7.10;;
13090;SDS011;6611;52.604;13.438;2024-01-30T00:34:41;9.47;;;7.07;;
13090;SDS011;6611;52.604;13.438;2024-01-30T00:39:43;11.13;;;7.13;;
13090;SDS011;6611;52.604;13.438;2024-01-30T00:44:45;12.20;;;7.87;;
13090;SDS011;6611;52.604;13.438;2024-01-30T00:49:48;11.63;;;6.67;;
13090;SDS011;6611;52.604;13.438;2024-01-30T00:54:49;9.07;;;6.23;;
13090;SDS011;6611;52.604;13.438;2024-01-30T00:59:51;10.30;;;6.27;;
13090;SDS011;6611;52.604;13.438;2024-01-30T01:04:54;9.83;;;6.17;;
13090;SDS011;6611;52.604;13.438;2024-01-30T01:09:56;11.43;;;6.47;;
13090;SDS011;6611;52.604;13.438;2024-01-30T01:14:57;11.23;;;5.97;;
13090;SDS011;6611;52.604;13.438;2024-01-30T01:20:00;8.87;;;5.83;;
13090;SDS011;6611;52.604;13.438;2024-01-30T01:25:02;9.87;;;6.60;;
13090;SDS011;6611;52.604;13.438;2024-01-30T01:30:08;10.33;;;5.87;;
13090;SDS011;6611;52.604;13.438;2024-01-30T01:35:13;8.43;;;6.13;;
13090;SDS011;6611;52.604;13.438;2024-01-30T01:40:14;9.27;;;6.33;;
13090;SDS011;6611;52.604;13.438;2024-01-30T01:45:16;9.93;;;6.20;;
13090;SDS011;6611;52.604;13.438;2024-01-30T01:50:19;9.90;;;6.13;;
13090;SDS011;6611;52.604;13.438;2024-01-30T01:55:22;11.53;;;6.80;;
13090;SDS011;6611;52.604;13.438;2024-01-30T02:00:26;9.80;;;5.63;;
13090;SDS011;6611;52.604;13.438;2024-01-30T02:05:29;7.93;;;5.57;;
13090;SDS011;6611;52.604;13.438;2024-01-30T02:10:31;11.13;;;6.07;;
13090;SDS011;6611;52.604;13.438;2024-01-30T02:15:33;8.83;;;6.27;;
13090;SDS011;6611;52.604;13.438;2024-01-30T02:20:36;9.17;;;5.40;;
13090;SDS011;6611;52.604;13.438;2024-01-30T02:25:40;8.70;;;5.97;;
13090;SDS011;6611;52.604;13.438;2024-01-30T02:30:44;9.90;;;6.47;;
13090;SDS011;6611;52.604;13.438;2024-01-30T02:35:47;10.27;;;6.13;;
13090;SDS011;6611;52.604;13.438;2024-01-30T02:40:50;9.23;;;5.87;;
13090;SDS011;6611;52.604;13.438;2024-01-30T02:45:51;9.77;;;5.43;;
13090;SDS011;6611;52.604;13.438;2024-01-30T02:50:53;10.60;;;5.80;;
13090;SDS011;6611;52.604;13.438;2024-01-30T02:55:56;9.67;;;6.00;;
13090;SDS011;6611;52.604;13.438;2024-01-30T03:00:58;10.27;;;5.97;;
13090;SDS011;6611;52.604;13.438;2024-01-30T03:05:59;8.57;;;6.40;;
13090;SDS011;6611;52.604;13.438;2024-01-30T03:11:03;9.47;;;5.93;;
13090;SDS011;6611;52.604;13.438;2024-01-30T03:16:05;11.93;;;5.60;;
13090;SDS011;6611;52.604;13.438;2024-01-30T03:21:07;9.13;;;5.73;;
13090;SDS011;6611;52.604;13.438;2024-01-30T03:26:10;7.60;;;6.00;;
13090;SDS011;6611;52.604;13.438;2024-01-30T03:31:13;11.40;;;6.50;;
13090;SDS011;6611;52.604;13.438;2024-01-30T03:36:16;9.30;;;5.90;;
13090;SDS011;6611;52.604;13.438;2024-01-30T03:41:19;9.67;;;6.17;;
13090;SDS011;6611;52.604;13.438;2024-01-30T03:46:20;10.90;;;6.27;;
13090;SDS011;6611;52.604;13.438;2024-01-30T03:51:22;11.43;;;6.33;;
13090;SDS011;6611;52.604;13.438;2024-01-30T03:56:25;12.83;;;6.80;;
13090;SDS011;6611;52.604;13.438;2024-01-30T04:01:27;10.57;;;6.97;;
13090;SDS011;6611;52.604;13.438;2024-01-30T04:06:28;10.07;;;6.57;;
13090;SDS011;6611;52.604;13.438;2024-01-30T04:11:31;10.00;;;6.77;;
13090;SDS011;6611;52.604;13.438;2024-01-30T04:16:33;9.13;;;6.20;;
13090;SDS011;6611;52.604;13.438;2024-01-30T04:21:35;7.73;;;6.00;;
13090;SDS011;6611;52.604;13.438;2024-01-30T04:26:37;10.37;;;6.03;;
13090;SDS011;6611;52.604;13.438;2024-01-30T04:31:39;8.60;;;6.20;;
13090;SDS011;6611;52.604;13.438;2024-01-30T04:36:43;8.43;;;6.20;;
13090;SDS011;6611;52.604;13.438;2024-01-30T04:41:46;11.47;;;6.47;;
13090;SDS011;6611;52.604;13.438;2024-01-30T04:46:48;11.07;;;6.40;;
13090;SDS011;6611;52.604;13.438;2024-01-30T04:51:50;9.53;;;6.80;;
13090;SDS011;6611;52.604;13.438;2024-01-30T04:56:53;15.77;;;8.07;;
13090;SDS011;6611;52.604;13.438;2024-01-30T05:01:54;13.67;;;8.33;;
13090;SDS011;6611;52.604;13.438;2024-01-30T05:06:56;16.00;;;8.13;;
13090;SDS011;6611;52.604;13.438;2024-01-30T05:11:59;12.53;;;7.57;;
13090;SDS011;6611;52.604;13.438;2024-01-30T05:17:01;10.83;;;7.60;;
13090;SDS011;6611;52.604;13.438;2024-01-30T05:22:03;14.60;;;7.77;;
13090;SDS011;6611;52.604;13.438;2024-01-30T05:27:06;11.93;;;7.53;;
13090;SDS011;6611;52.604;13.438;2024-01-30T05:32:08;14.47;;;8.03;;
13090;SDS011;6611;52.604;13.438;2024-01-30T05:37:10;13.07;;;7.60;;
13090;SDS011;6611;52.604;13.438;2024-01-30T05:42:15;10.43;;;7.10;;
13090;SDS011;6611;52.604;13.438;2024-01-30T05:47:17;13.20;;;7.53;;
13090;SDS011;6611;52.604;13.438;2024-01-30T05:52:19;10.90;;;6.50;;
13090;SDS011;6611;52.604;13.438;2024-01-30T05:57:22;9.87;;;7.17;;
13090;SDS011;6611;52.604;13.438;2024-01-30T06:02:23;13.00;;;7.00;;
13090;SDS011;6611;52.604;13.438;2024-01-30T06:07:25;13.67;;;7.93;;
13090;SDS011;6611;52.604;13.438;2024-01-30T06:12:28;10.83;;;6.83;;
13090;SDS011;6611;52.604;13.438;2024-01-30T06:17:30;14.40;;;7.37;;
13090;SDS011;6611;52.604;13.438;2024-01-30T06:22:31;11.43;;;6.77;;
13090;SDS011;6611;52.604;13.438;2024-01-30T06:27:35;10.93;;;6.77;;
13090;SDS011;6611;52.604;13.438;2024-01-30T06:32:36;11.00;;;7.20;;
13090;SDS011;6611;52.604;13.438;2024-01-30T06:37:38;12.47;;;6.47;;
13090;SDS011;6611;52.604;13.438;2024-01-30T06:42:41;11.63;;;6.93;;
13090;SDS011;6611;52.604;13.438;2024-01-30T06:47:43;11.47;;;7.07;;
13090;SDS011;6611;52.604;13.438;2024-01-30T06:52:45;10.90;;;7.10;;
13090;SDS011;6611;52.604;13.438;2024-01-30T06:57:47;9.20;;;6.50;;
13090;SDS011;6611;52.604;13.438;2024-01-30T07:02:49;9.20;;;6.30;;
13090;SDS011;6611;52.604;13.438;2024-01-30T07:07:51;11.83;;;6.97;;
13090;SDS011;6611;52.604;13.438;2024-01-30T07:12:54;9.97;;;7.20;;
13090;SDS011;6611;52.604;13.438;2024-01-30T07:17:55;13.20;;;7.27;;
13090;SDS011;6611;52.604;13.438;2024-01-30T07:22:57;11.90;;;7.77;;
13090;SDS011;6611;52.604;13.438;2024-01-30T07:28:00;12.27;;;7.37;;
13090;SDS011;6611;52.604;13.438;2024-01-30T07:33:02;10.47;;;7.13;;
13090;SDS011;6611;52.604;13.438;2024-01-30T07:38:04;12.57;;;7.00;;
13090;SDS011;6611;52.604;13.438;2024-01-30T07:43:07;9.90;;;7.03;;
13090;SDS011;6611;52.604;13.438;2024-01-30T07:48:08;15.67;;;8.47;;
13090;SDS011;6611;52.604;13.438;2024-01-30T07:53:10;12.97;;;8.23;;
13090;SDS011;6611;52.604;13.438;2024-01-30T07:58:13;11.37;;;7.90;;
13090;SDS011;6611;52.604;13.438;2024-01-30T08:03:14;11.93;;;7.47;;
13090;SDS011;6611;52.604;13.438;2024-01-30T08:08:18;13.80;;;8.47;;
13090;SDS011;6611;52.604;13.438;2024-01-30T08:13:21;12.00;;;7.70;;
13090;SDS011;6611;52.604;13.438;2024-01-30T08:18:22;13.13;;;7.30;;
13090;SDS011;6611;52.604;13.438;2024-01-30T08:23:24;11.00;;;7.57;;
13090;SDS011;6611;52.604;13.438;2024-01-30T08:28:27;12.60;;;7.17;;
13090;SDS011;6611;52.604;13.438;2024-01-30T08:33:29;10.67;;;7.10;;
13090;SDS011;6611;52.604;13.438;2024-01-30T08:38:30;12.33;;;7.27;;
13090;SDS011;6611;52.604;13.438;2024-01-30T08:43:33;12.63;;;7.33;;
13090;SDS011;6611;52.604;13.438;2024-01-30T08:48:36;12.70;;;7.63;;
13090;SDS011;6611;52.604;13.438;2024-01-30T08:53:38;10.30;;;7.10;;
13090;SDS011;6611;52.604;13.438;2024-01-30T08:58:41;11.50;;;7.07;;
13090;SDS011;6611;52.604;13.438;2024-01-30T09:03:43;13.90;;;8.00;;
13090;SDS011;6611;52.604;13.438;2024-01-30T09:08:46;11.93;;;7.90;;
13090;SDS011;6611;52.604;13.438;2024-01-30T09:13:49;11.60;;;7.83;;
13090;SDS011;6611;52.604;13.438;2024-01-30T09:18:51;12.70;;;7.77;;
13090;SDS011;6611;52.604;13.438;2024-01-30T09:23:53;18.57;;;8.23;;
13090;SDS011;6611;52.604;13.438;2024-01-30T09:28:57;13.00;;;8.33;;
13090;SDS011;6611;52.604;13.438;2024-01-30T09:33:59;13.20;;;8.13;;
13090;SDS011;6611;52.604;13.438;2024-01-30T09:39:00;11.97;;;8.10;;
13090;SDS011;6611;52.604;13.438;2024-01-30T09:44:05;13.60;;;7.97;;
13090;SDS011;6611;52.604;13.438;2024-01-30T09:49:08;10.73;;;7.17;;
13090;SDS011;6611;52.604;13.438;2024-01-30T09:54:10;8.70;;;6.20;;
13090;SDS011;6611;52.604;13.438;2024-01-30T09:59:16;8.77;;;6.50;;
13090;SDS011;6611;52.604;13.438;2024-01-30T10:04:18;10.70;;;6.83;;
13090;SDS011;6611;52.604;13.438;2024-01-30T10:09:20;10.57;;;6.43;;
13090;SDS011;6611;52.604;13.438;2024-01-30T10:14:23;12.93;;;6.33;;
13090;SDS011;6611;52.604;13.438;2024-01-30T10:19:25;8.80;;;6.53;;
13090;SDS011;6611;52.604;13.438;2024-01-30T10:24:27;11.63;;;6.17;;
13090;SDS011;6611;52.604;13.438;2024-01-30T10:29:31;7.63;;;5.30;;
13090;SDS011;6611;52.604;13.438;2024-01-30T10:34:33;9.17;;;5.33;;
13090;SDS011;6611;52.604;13.438;2024-01-30T10:39:36;10.47;;;5.17;;
13090;SDS011;6611;52.604;13.438;2024-01-30T10:44:44;7.63;;;4.77;;
13090;SDS011;6611;52.604;13.438;2024-01-30T10:49:59;10.10;;;5.00;;
13090;SDS011;6611;52.604;13.438;2024-01-30T10:55:01;10.53;;;5.10;;
13090;SDS011;6611;52.604;13.438;2024-01-30T11:00:08;6.60;;;4.60;;
13090;SDS011;6611;52.604;13.438;2024-01-30T11:05:12;6.07;;;4.27;;
13090;SDS011;6611;52.604;13.438;2024-01-30T11:10:15;8.87;;;4.97;;
13090;SDS011;6611;52.604;13.438;2024-01-30T11:15:18;8.20;;;4.23;;
13090;SDS011;6611;52.604;13.438;2024-01-30T11:20:22;8.53;;;4.83;;
13090;SDS011;6611;52.604;13.438;2024-01-30T11:25:26;8.87;;;5.10;;
13090;SDS011;6611;52.604;13.438;2024-01-30T11:30:30;11.00;;;4.90;;
13090;SDS011;6611;52.604;13.438;2024-01-30T11:35:33;7.57;;;4.23;;
13090;SDS011;6611;52.604;13.438;2024-01-30T11:40:37;7.90;;;4.73;;
13090;SDS011;6611;52.604;13.438;2024-01-30T11:45:41;8.00;;;4.87;;
13090;SDS011;6611;52.604;13.438;2024-01-30T11:50:44;10.30;;;5.10;;
13090;SDS011;6611;52.604;13.438;2024-01-30T11:55:49;7.47;;;4.50;;
13090;SDS011;6611;52.604;13.438;2024-01-30T12:00:56;7.17;;;4.87;;
13090;SDS011;6611;52.604;13.438;2024-01-30T12:05:58;6.63;;;4.57;;
13090;SDS011;6611;52.604;13.438;2024-01-30T12:11:00;10.50;;;5.50;;
13090;SDS011;6611;52.604;13.438;2024-01-30T12:16:06;7.60;;;4.47;;
13090;SDS011;6611;52.604;13.438;2024-01-30T12:21:08;8.17;;;5.07;;
13090;SDS011;6611;52.604;13.438;2024-01-30T12:26:10;6.20;;;4.47;;
13090;SDS011;6611;52.604;13.438;2024-01-30T12:31:13;7.33;;;5.20;;
13090;SDS011;6611;52.604;13.438;2024-01-30T12:36:15;8.47;;;4.80;;
13090;SDS011;6611;52.604;13.438;2024-01-30T12:41:19;5.73;;;4.10;;
13090;SDS011;6611;52.604;13.438;2024-01-30T12:46:22;6.87;;;5.23;;
13090;SDS011;6611;52.604;13.438;2024-01-30T12:51:27;6.37;;;5.07;;
13090;SDS011;6611;52.604;13.438;2024-01-30T12:56:28;7.50;;;4.90;;
13090;SDS011;6611;52.604;13.438;2024-01-30T13:01:31;8.30;;;5.53;;
13090;SDS011;6611;52.604;13.438;2024-01-30T13:06:33;7.53;;;4.97;;
13090;SDS011;6611;52.604;13.438;2024-01-30T13:11:34;8.40;;;5.10;;
13090;SDS011;6611;52.604;13.438;2024-01-30T13:16:38;7.63;;;5.30;;
13090;SDS011;6611;52.604;13.438;2024-01-30T13:21:39;6.67;;;4.90;;
13090;SDS011;6611;52.604;13.438;2024-01-30T13:26:42;8.57;;;5.27;;
13090;SDS011;6611;52.604;13.438;2024-01-30T13:31:45;8.30;;;5.40;;
13090;SDS011;6611;52.604;13.438;2024-01-30T13:36:47;9.80;;;5.50;;
13090;SDS011;6611;52.604;13.438;2024-01-30T13:41:49;6.97;;;4.80;;
13090;SDS011;6611;52.604;13.438;2024-01-30T13:46:52;8.40;;;5.00;;
13090;SDS011;6611;52.604;13.438;2024-01-30T13:51:55;7.10;;;5.30;;
13090;SDS011;6611;52.604;13.438;2024-01-30T13:56:56;8.07;;;4.87;;
13090;SDS011;6611;52.604;13.438;2024-01-30T14:02:00;8.10;;;5.30;;
13090;SDS011;6611;52.604;13.438;2024-01-30T14:07:01;8.43;;;5.13;;
13090;SDS011;6611;52.604;13.438;2024-01-30T14:12:03;8.20;;;5.57;;
13090;SDS011;6611;52.604;13.438;2024-01-30T14:17:07;9.87;;;4.53;;
13090;SDS011;6611;52.604;13.438;2024-01-30T14:22:09;7.87;;;5.13;;
13090;SDS011;6611;52.604;13.438;2024-01-30T14:27:10;6.20;;;4.70;;
13090;SDS011;6611;52.604;13.438;2024-01-30T14:32:13;7.57;;;4.80;;
13090;SDS011;6611;52.604;13.438;2024-01-30T14:37:15;8.60;;;5.90;;
13090;SDS011;6611;52.604;13.438;2024-01-30T14:42:17;6.80;;;5.40;;
13090;SDS011;6611;52.604;13.438;2024-01-30T14:47:20;9.77;;;5.13;;
13090;SDS011;6611;52.604;13.438;2024-01-30T14:52:21;7.63;;;5.23;;
13090;SDS011;6611;52.604;13.438;2024-01-30T14:57:23;10.90;;;4.97;;
13090;SDS011;6611;52.604;13.438;2024-01-30T15:02:27;7.33;;;5.50;;
13090;SDS011;6611;52.604;13.438;2024-01-30T15:07:28;9.23;;;5.87;;
13090;SDS011;6611;52.604;13.438;2024-01-30T15:12:30;6.40;;;4.77;;
13090;SDS011;6611;52.604;13.438;2024-01-30T15:17:33;7.47;;;5.40;;
13090;SDS011;6611;52.604;13.438;2024-01-30T15:22:35;10.40;;;5.63;;
13090;SDS011;6611;52.604;13.438;2024-01-30T15:27:40;7.70;;;5.13;;
13090;SDS011;6611;52.604;13.438;2024-01-30T15:32:43;9.07;;;6.13;;
13090;SDS011;6611;52.604;13.438;2024-01-30T15:37:45;9.03;;;5.87;;
13090;SDS011;6611;52.604;13.438;2024-01-30T15:42:47;8.60;;;5.33;;
13090;SDS011;6611;52.604;13.438;2024-01-30T15:47:50;7.90;;;5.33;;
13090;SDS011;6611;52.604;13.438;2024-01-30T15:52:51;6.63;;;5.13;;
13090;SDS011;6611;52.604;13.438;2024-01-30T15:57:53;7.80;;;5.37;;
13090;SDS011;6611;52.604;13.438;2024-01-30T16:02:56;12.47;;;5.13;;
13090;SDS011;6611;52.604;13.438;2024-01-30T16:07:58;12.13;;;5.90;;
13090;SDS011;6611;52.604;13.438;2024-01-30T16:13:00;9.40;;;6.23;;
13090;SDS011;6611;52.604;13.438;2024-01-30T16:18:03;8.23;;;6.53;;
13090;SDS011;6611;52.604;13.438;2024-01-30T16:23:05;10.10;;;7.33;;
13090;SDS011;6611;52.604;13.438;2024-01-30T16:28:07;11.67;;;8.13;;
13090;SDS011;6611;52.604;13.438;2024-01-30T16:33:10;10.70;;;7.83;;
13090;SDS011;6611;52.604;13.438;2024-01-30T16:38:12;10.57;;;7.57;;
13090;SDS011;6611;52.604;13.438;2024-01-30T16:43:13;13.60;;;8.83;;
13090;SDS011;6611;52.604;13.438;2024-01-30T16:48:16;11.50;;;7.73;;
13090;SDS011;6611;52.604;13.438;2024-01-30T16:53:20;11.63;;;7.80;;
13090;SDS011;6611;52.604;13.438;2024-01-30T16:58:22;8.63;;;6.37;;
13090;SDS011;6611;52.604;13.438;2024-01-30T17:03:25;11.40;;;7.77;;
13090;SDS011;6611;52.604;13.438;2024-01-30T17:08:27;10.47;;;7.37;;
13090;SDS011;6611;52.604;13.438;2024-01-30T17:13:28;13.33;;;8.50;;
13090;SDS011;6611;52.604;13.438;2024-01-30T17:18:33;8.87;;;7.23;;
13090;SDS011;6611;52.604;13.438;2024-01-30T17:23:35;10.17;;;7.93;;
13090;SDS011;6611;52.604;13.438;2024-01-30T17:28:39;10.97;;;7.60;;
13090;SDS011;6611;52.604;13.438;2024-01-30T17:33:43;10.23;;;8.00;;
13090;SDS011;6611;52.604;13.438;2024-01-30T17:38:45;12.00;;;8.00;;
13090;SDS011;6611;52.604;13.438;2024-01-30T17:43:47;11.60;;;7.30;;
13090;SDS011;6611;52.604;13.438;2024-01-30T17:48:50;10.23;;;7.63;;
13090;SDS011;6611;52.604;13.438;2024-01-30T17:53:51;7.40;;;6.27;;
13090;SDS011;6611;52.604;13.438;2024-01-30T17:58:53;8.47;;;6.27;;
13090;SDS011;6611;52.604;13.438;2024-01-30T18:03:56;10.13;;;6.17;;
13090;SDS011;6611;52.604;13.438;2024-01-30T18:08:58;9.63;;;6.17;;
13090;SDS011;6611;52.604;13.438;2024-01-30T18:14:00;10.37;;;6.73;;
13090;SDS011;6611;52.604;13.438;2024-01-30T18:19:03;8.57;;;5.83;;
13090;SDS011;6611;52.604;13.438;2024-01-30T18:24:04;8.60;;;6.57;;
13090;SDS011;6611;52.604;13.438;2024-01-30T18:29:06;9.17;;;6.27;;
13090;SDS011;6611;52.604;13.438;2024-01-30T18:34:09;10.23;;;6.13;;
13090;SDS011;6611;52.604;13.438;2024-01-30T18:39:11;11.10;;;6.70;;
13090;SDS011;6611;52.604;13.438;2024-01-30T18:44:13;11.33;;;7.00;;
13090;SDS011;6611;52.604;13.438;2024-01-30T18:49:16;10.27;;;6.90;;
13090;SDS011;6611;52.604;13.438;2024-01-30T18:54:19;10.60;;;6.80;;
13090;SDS011;6611;52.604;13.438;2024-01-30T18:59:20;7.93;;;6.00;;
13090;SDS011;6611;52.604;13.438;2024-01-30T19:04:23;8.33;;;5.67;;
13090;SDS011;6611;52.604;13.438;2024-01-30T19:09:25;7.37;;;5.10;;
13090;SDS011;6611;52.604;13.438;2024-01-30T19:14:27;9.90;;;5.67;;
13090;SDS011;6611;52.604;13.438;2024-01-30T19:19:32;7.83;;;5.60;;
13090;SDS011;6611;52.604;13.438;2024-01-30T19:24:34;8.43;;;5.57;;
13090;SDS011;6611;52.604;13.438;2024-01-30T19:29:35;9.40;;;6.53;;
13090;SDS011;6611;52.604;13.438;2024-01-30T19:34:38;9.93;;;6.40;;
13090;SDS011;6611;52.604;13.438;2024-01-30T19:39:40;9.83;;;5.83;;
13090;SDS011;6611;52.604;13.438;2024-01-30T19:44:43;11.20;;;5.80;;
13090;SDS011;6611;52.604;13.438;2024-01-30T19:49:46;9.60;;;6.07;;
13090;SDS011;6611;52.604;13.438;2024-01-30T19:54:48;7.03;;;5.60;;
13090;SDS011;6611;52.604;13.438;2024-01-30T19:59:50;7.63;;;5.73;;
13090;SDS011;6611;52.604;13.438;2024-01-30T20:04:53;9.77;;;6.17;;
13090;SDS011;6611;52.604;13.438;2024-01-30T20:09:55;10.50;;;6.30;;
13090;SDS011;6611;52.604;13.438;2024-01-30T20:14:56;8.20;;;5.60;;
13090;SDS011;6611;52.604;13.438;2024-01-30T20:19:59;8.67;;;6.47;;
13090;SDS011;6611;52.604;13.438;2024-01-30T20:25:01;9.37;;;6.47;;
13090;SDS011;6611;52.604;13.438;2024-01-30T20:30:03;10.00;;;7.10;;
13090;SDS011;6611;52.604;13.438;2024-01-30T20:35:07;10.73;;;7.30;;
13090;SDS011;6611;52.604;13.438;2024-01-30T20:40:10;14.17;;;8.37;;
13090;SDS011;6611;52.604;13.438;2024-01-30T20:45:12;10.17;;;6.73;;
13090;SDS011;6611;52.604;13.438;2024-01-30T20:50:16;12.77;;;7.43;;
13090;SDS011;6611;52.604;13.438;2024-01-30T20:55:18;9.50;;;6.73;;
13090;SDS011;6611;52.604;13.438;2024-01-30T21:00:19;8.13;;;6.50;;
13090;SDS011;6611;52.604;13.438;2024-01-30T21:05:23;9.20;;;6.50;;
13090;SDS011;6611;52.604;13.438;2024-01-30T21:10:25;9.43;;;6.20;;
13090;SDS011;6611;52.604;13.438;2024-01-30T21:15:26;9.97;;;6.60;;
13090;SDS011;6611;52.604;13.438;2024-01-30T21:20:29;10.23;;;6.30;;
13090;SDS011;6611;52.604;13.438;2024-01-30T21:25:31;8.90;;;6.50;;
13090;SDS011;6611;52.604;13.438;2024-01-30T21:30:33;10.83;;;6.23;;
13090;SDS011;6611;52.604;13.438;2024-01-30T21:35:36;9.37;;;6.50;;
13090;SDS011;6611;52.604;13.438;2024-01-30T21:40:37;11.37;;;7.07;;
13090;SDS011;6611;52.604;13.438;2024-01-30T21:45:40;9.93;;;6.53;;
13090;SDS011;6611;52.604;13.438;2024-01-30T21:50:43;11.17;;;6.73;;
13090;SDS011;6611;52.604;13.438;2024-01-30T21:55:45;11.80;;;7.07;;
13090;SDS011;6611;52.604;13.438;2024-01-30T22:00:47;11.03;;;7.07;;
13090;SDS011;6611;52.604;13.438;2024-01-30T22:05:50;9.57;;;6.73;;
13090;SDS011;6611;52.604;13.438;2024-01-30T22:10:51;9.30;;;6.33;;
13090;SDS011;6611;52.604;13.438;2024-01-30T22:15:53;8.67;;;6.10;;
13090;SDS011;6611;52.604;13.438;2024-01-30T22:20:56;11.10;;;6.47;;
13090;SDS011;6611;52.604;13.438;2024-01-30T22:25:58;9.63;;;7.00;;
13090;SDS011;6611;52.604;13.438;2024-01-30T22:31:01;9.70;;;7.17;;
13090;SDS011;6611;52.604;13.438;2024-01-30T22:36:05;9.23;;;6.20;;
13090;SDS011;6611;52.604;13.438;2024-01-30T22:41:07;7.57;;;6.23;;
13090;SDS011;6611;52.604;13.438;2024-01-30T22:46:09;8.50;;;5.70;;
13090;SDS011;6611;52.604;13.438;2024-01-30T22:51:12;8.33;;;6.23;;
13090;SDS011;6611;52.604;13.438;2024-01-30T22:56:14;10.17;;;6.57;;
13090;SDS011;6611;52.604;13.438;2024-01-30T23:01:16;9.80;;;6.07;;
13090;SDS011;6611;52.604;13.438;2024-01-30T23:06:19;10.03;;;6.03;;
13090;SDS011;6611;52.604;13.438;2024-01-30T23:11:20;9.37;;;6.40;;
13090;SDS011;6611;52.604;13.438;2024-01-30T23:16:22;8.33;;;6.10;;
13090;SDS011;6611;52.604;13.438;2024-01-30T23:21:25;7.53;;;5.80;;
13090;SDS011;6611;52.604;13.438;2024-01-30T23:26:28;8.77;;;6.70;;
13090;SDS011;6611;52.604;13.438;2024-01-30T23:31:30;10.27;;;6.80;;
13090;SDS011;6611;52.604;13.438;2024-01-30T23:36:33;10.83;;;6.37;;
13090;SDS011;6611;52.604;13.438;2024-01-30T23:41:41;8.13;;;6.43;;
13090;SDS011;6611;52.604;13.438;2024-01-30T23:46:43;9.33;;;6.03;;
13090;SDS011;6611;52.604;13.438;2024-01-30T23:51:46;9.80;;;6.47;;
13090;SDS011;6611;52.604;13.438;2024-01-30T23:56:47;8.27;;;6.00;;
